sensor_id;sensor_type;location;lat;lon;timestamp;P1;P2;P0
21358;PMS7003;13506;50.852;20.632;2022-10-20T00:01:26;15.80;13.80;7.00
21358;PMS7003;13506;50.852;20.632;2022-10-20T00:03:54;15.80;13.00;7.20
21358;PMS7003;13506;50.852;20.632;2022-10-20T00:06:24;13.60;11.20;6.80
21358;PMS7003;13506;50.852;20.632;2022-10-20T00:08:53;10.00;9.40;5.40
21358;PMS7003;13506;50.852;20.632;2022-10-20T00:11:24;22.00;18.40;9.60
21358;PMS7003;13506;50.852;20.632;2022-10-20T00:13:53;13.60;13.20;8.60
21358;PMS7003;13506;50.852;20.632;2022-10-20T00:16:23;15.20;15.00;8.40
21358;PMS7003;13506;50.852;20.632;2022-10-20T00:18:52;14.00;11.20;7.00
21358;PMS7003;13506;50.852;20.632;2022-10-20T00:21:23;16.60;13.40;7.80
21358;PMS7003;13506;50.852;20.632;2022-10-20T00:23:52;14.00;10.60;6.00
21358;PMS7003;13506;50.852;20.632;2022-10-20T00:26:21;13.00;12.80;6.60
21358;PMS7003;13506;50.852;20.632;2022-10-20T00:28:52;16.40;13.60;7.00
21358;PMS7003;13506;50.852;20.632;2022-10-20T00:31:22;15.40;13.00;6.00
21358;PMS7003;13506;50.852;20.632;2022-10-20T00:33:50;16.60;14.80;7.20
21358;PMS7003;13506;50.852;20.632;2022-10-20T00:36:19;17.80;15.60;9.00
21358;PMS7003;13506;50.852;20.632;2022-10-20T00:38:48;11.20;11.00;7.20
21358;PMS7003;13506;50.852;20.632;2022-10-20T00:41:19;14.40;11.00;6.20
21358;PMS7003;13506;50.852;20.632;2022-10-20T00:43:49;13.60;12.40;5.40
21358;PMS7003;13506;50.852;20.632;2022-10-20T00:46:20;11.80;10.40;5.60
21358;PMS7003;13506;50.852;20.632;2022-10-20T00:48:50;16.00;13.40;6.00
21358;PMS7003;13506;50.852;20.632;2022-10-20T00:51:21;17.00;14.80;6.20
21358;PMS7003;13506;50.852;20.632;2022-10-20T00:53:55;14.20;13.80;7.80
21358;PMS7003;13506;50.852;20.632;2022-10-20T00:56:29;12.80;9.80;5.40
21358;PMS7003;13506;50.852;20.632;2022-10-20T00:58:58;11.20;11.20;5.40
21358;PMS7003;13506;50.852;20.632;2022-10-20T01:01:28;17.80;14.60;7.20
21358;PMS7003;13506;50.852;20.632;2022-10-20T01:03:56;16.40;14.00;8.60
21358;PMS7003;13506;50.852;20.632;2022-10-20T01:06:25;13.20;13.00;8.00
21358;PMS7003;13506;50.852;20.632;2022-10-20T01:08:53;15.40;12.40;8.20
21358;PMS7003;13506;50.852;20.632;2022-10-20T01:11:24;15.40;12.40;6.00
21358;PMS7003;13506;50.852;20.632;2022-10-20T01:14:04;13.40;13.00;7.60
21358;PMS7003;13506;50.852;20.632;2022-10-20T01:16:42;13.20;13.00;8.00
21358;PMS7003;13506;50.852;20.632;2022-10-20T01:22:27;17.20;14.40;8.80
21358;PMS7003;13506;50.852;20.632;2022-10-20T01:25:12;16.00;14.60;8.60
21358;PMS7003;13506;50.852;20.632;2022-10-20T01:27:49;16.40;16.00;9.20
21358;PMS7003;13506;50.852;20.632;2022-10-20T01:30:22;17.00;14.00;8.00
21358;PMS7003;13506;50.852;20.632;2022-10-20T01:32:54;12.00;12.00;5.60
21358;PMS7003;13506;50.852;20.632;2022-10-20T01:35:48;12.50;12.00;6.00
21358;PMS7003;13506;50.852;20.632;2022-10-20T01:38:24;18.20;15.60;8.20
21358;PMS7003;13506;50.852;20.632;2022-10-20T01:41:02;16.60;14.20;8.40
21358;PMS7003;13506;50.852;20.632;2022-10-20T01:43:40;16.00;13.00;6.40
21358;PMS7003;13506;50.852;20.632;2022-10-20T01:46:12;16.80;13.40;6.20
21358;PMS7003;13506;50.852;20.632;2022-10-20T01:48:44;13.40;11.40;7.20
21358;PMS7003;13506;50.852;20.632;2022-10-20T01:51:13;14.80;11.80;7.40
21358;PMS7003;13506;50.852;20.632;2022-10-20T01:53:40;16.00;14.40;8.00
21358;PMS7003;13506;50.852;20.632;2022-10-20T01:56:09;15.20;12.20;6.00
21358;PMS7003;13506;50.852;20.632;2022-10-20T01:59:05;11.40;9.40;4.60
21358;PMS7003;13506;50.852;20.632;2022-10-20T02:01:49;16.00;14.80;8.40
21358;PMS7003;13506;50.852;20.632;2022-10-20T02:04:38;12.00;11.80;6.00
21358;PMS7003;13506;50.852;20.632;2022-10-20T02:07:16;15.40;12.00;8.00
21358;PMS7003;13506;50.852;20.632;2022-10-20T02:09:52;14.20;12.00;5.20
21358;PMS7003;13506;50.852;20.632;2022-10-20T02:12:27;14.40;11.80;6.60
21358;PMS7003;13506;50.852;20.632;2022-10-20T02:14:59;13.40;12.20;6.40
21358;PMS7003;13506;50.852;20.632;2022-10-20T02:17:28;15.40;14.20;8.00
21358;PMS7003;13506;50.852;20.632;2022-10-20T02:19:55;12.80;12.80;6.00
21358;PMS7003;13506;50.852;20.632;2022-10-20T02:22:24;14.20;13.00;8.00
21358;PMS7003;13506;50.852;20.632;2022-10-20T02:24:53;18.20;17.80;10.60
21358;PMS7003;13506;50.852;20.632;2022-10-20T02:27:21;19.00;15.80;8.80
21358;PMS7003;13506;50.852;20.632;2022-10-20T02:29:54;13.40;13.40;8.20
21358;PMS7003;13506;50.852;20.632;2022-10-20T02:32:27;16.60;15.40;8.00
21358;PMS7003;13506;50.852;20.632;2022-10-20T02:34:58;19.20;15.60;8.00
21358;PMS7003;13506;50.852;20.632;2022-10-20T02:37:25;18.00;16.60;9.20
21358;PMS7003;13506;50.852;20.632;2022-10-20T02:39:53;20.40;15.80;9.00
21358;PMS7003;13506;50.852;20.632;2022-10-20T02:42:21;18.20;15.60;9.60
21358;PMS7003;13506;50.852;20.632;2022-10-20T02:44:49;20.20;19.20;7.40
21358;PMS7003;13506;50.852;20.632;2022-10-20T02:47:17;14.60;12.80;6.40
21358;PMS7003;13506;50.852;20.632;2022-10-20T02:49:46;12.80;12.80;8.00
21358;PMS7003;13506;50.852;20.632;2022-10-20T02:52:14;15.60;15.60;8.60
21358;PMS7003;13506;50.852;20.632;2022-10-20T02:54:42;15.40;15.20;9.80
21358;PMS7003;13506;50.852;20.632;2022-10-20T02:57:10;16.40;12.80;7.40
21358;PMS7003;13506;50.852;20.632;2022-10-20T02:59:38;16.80;14.60;8.40
21358;PMS7003;13506;50.852;20.632;2022-10-20T03:02:05;15.60;14.00;6.40
21358;PMS7003;13506;50.852;20.632;2022-10-20T03:04:33;15.20;13.60;8.00
21358;PMS7003;13506;50.852;20.632;2022-10-20T03:07:02;11.60;11.40;6.80
21358;PMS7003;13506;50.852;20.632;2022-10-20T03:09:30;14.40;13.60;7.60
21358;PMS7003;13506;50.852;20.632;2022-10-20T03:11:57;14.20;12.80;7.40
21358;PMS7003;13506;50.852;20.632;2022-10-20T03:14:25;15.60;14.00;8.00
21358;PMS7003;13506;50.852;20.632;2022-10-20T03:16:53;17.60;16.40;8.00
21358;PMS7003;13506;50.852;20.632;2022-10-20T03:19:20;18.40;15.40;7.40
21358;PMS7003;13506;50.852;20.632;2022-10-20T03:21:48;16.20;12.00;7.00
21358;PMS7003;13506;50.852;20.632;2022-10-20T03:24:17;13.40;11.00;7.00
21358;PMS7003;13506;50.852;20.632;2022-10-20T03:26:45;14.20;12.40;7.00
21358;PMS7003;13506;50.852;20.632;2022-10-20T03:29:13;20.20;15.20;9.60
21358;PMS7003;13506;50.852;20.632;2022-10-20T03:31:41;21.60;16.80;8.00
21358;PMS7003;13506;50.852;20.632;2022-10-20T03:34:09;15.60;14.80;8.00
21358;PMS7003;13506;50.852;20.632;2022-10-20T03:36:37;18.00;16.40;9.00
21358;PMS7003;13506;50.852;20.632;2022-10-20T03:39:05;17.20;16.00;10.00
21358;PMS7003;13506;50.852;20.632;2022-10-20T03:41:34;18.40;15.20;8.80
21358;PMS7003;13506;50.852;20.632;2022-10-20T03:44:02;16.80;15.40;8.00
21358;PMS7003;13506;50.852;20.632;2022-10-20T03:46:30;21.60;15.80;8.40
21358;PMS7003;13506;50.852;20.632;2022-10-20T03:48:58;18.40;17.80;10.60
21358;PMS7003;13506;50.852;20.632;2022-10-20T03:51:25;15.20;13.60;8.00
21358;PMS7003;13506;50.852;20.632;2022-10-20T03:53:53;15.00;14.60;8.00
21358;PMS7003;13506;50.852;20.632;2022-10-20T03:56:21;18.60;17.00;10.00
21358;PMS7003;13506;50.852;20.632;2022-10-20T03:58:50;21.80;19.20;10.80
21358;PMS7003;13506;50.852;20.632;2022-10-20T04:01:19;20.20;19.00;9.40
21358;PMS7003;13506;50.852;20.632;2022-10-20T04:03:51;15.80;14.00;7.40
21358;PMS7003;13506;50.852;20.632;2022-10-20T04:06:19;22.20;16.60;10.20
21358;PMS7003;13506;50.852;20.632;2022-10-20T04:08:47;19.40;18.00;10.80
21358;PMS7003;13506;50.852;20.632;2022-10-20T04:11:14;17.60;15.00;8.00
21358;PMS7003;13506;50.852;20.632;2022-10-20T04:13:42;15.20;13.60;7.60
21358;PMS7003;13506;50.852;20.632;2022-10-20T04:16:11;14.60;13.00;8.00
21358;PMS7003;13506;50.852;20.632;2022-10-20T04:18:39;17.00;16.00;8.60
21358;PMS7003;13506;50.852;20.632;2022-10-20T04:21:07;18.40;16.00;9.20
21358;PMS7003;13506;50.852;20.632;2022-10-20T04:23:35;19.60;17.60;10.00
21358;PMS7003;13506;50.852;20.632;2022-10-20T04:26:08;15.00;13.40;7.80
21358;PMS7003;13506;50.852;20.632;2022-10-20T04:28:37;17.00;16.80;10.00
21358;PMS7003;13506;50.852;20.632;2022-10-20T04:31:05;15.20;14.00;8.00
21358;PMS7003;13506;50.852;20.632;2022-10-20T04:33:35;14.60;14.40;8.20
21358;PMS7003;13506;50.852;20.632;2022-10-20T04:36:03;16.00;14.00;8.80
21358;PMS7003;13506;50.852;20.632;2022-10-20T04:38:34;17.00;17.00;9.60
21358;PMS7003;13506;50.852;20.632;2022-10-20T04:41:03;16.00;14.20;9.00
21358;PMS7003;13506;50.852;20.632;2022-10-20T04:43:31;20.20;14.20;8.60
21358;PMS7003;13506;50.852;20.632;2022-10-20T04:46:00;19.40;16.60;10.60
21358;PMS7003;13506;50.852;20.632;2022-10-20T04:48:29;22.00;17.00;9.20
21358;PMS7003;13506;50.852;20.632;2022-10-20T04:51:01;25.60;20.20;10.60
21358;PMS7003;13506;50.852;20.632;2022-10-20T04:53:31;27.60;19.20;11.00
21358;PMS7003;13506;50.852;20.632;2022-10-20T04:55:59;26.00;22.80;14.00
21358;PMS7003;13506;50.852;20.632;2022-10-20T04:58:28;22.80;21.80;12.20
21358;PMS7003;13506;50.852;20.632;2022-10-20T05:00:59;26.00;24.40;15.80
21358;PMS7003;13506;50.852;20.632;2022-10-20T05:03:27;22.40;22.40;14.00
21358;PMS7003;13506;50.852;20.632;2022-10-20T05:06:07;22.40;19.60;12.20
21358;PMS7003;13506;50.852;20.632;2022-10-20T05:08:36;27.40;24.00;13.40
21358;PMS7003;13506;50.852;20.632;2022-10-20T05:11:04;27.00;25.00;14.20
21358;PMS7003;13506;50.852;20.632;2022-10-20T05:13:32;27.80;26.40;16.40
21358;PMS7003;13506;50.852;20.632;2022-10-20T05:16:00;36.00;30.80;19.00
21358;PMS7003;13506;50.852;20.632;2022-10-20T05:18:29;75.25;59.00;37.00
21358;PMS7003;13506;50.852;20.632;2022-10-20T05:20:57;39.75;36.75;22.25
21358;PMS7003;13506;50.852;20.632;2022-10-20T05:23:26;34.80;28.00;16.40
21358;PMS7003;13506;50.852;20.632;2022-10-20T05:25:54;36.80;31.20;14.20
21358;PMS7003;13506;50.852;20.632;2022-10-20T05:28:22;37.20;25.20;15.60
21358;PMS7003;13506;50.852;20.632;2022-10-20T05:30:49;36.60;27.20;15.00
21358;PMS7003;13506;50.852;20.632;2022-10-20T05:33:17;36.40;27.60;18.00
21358;PMS7003;13506;50.852;20.632;2022-10-20T05:35:45;30.00;29.40;18.00
21358;PMS7003;13506;50.852;20.632;2022-10-20T05:38:13;41.25;35.75;19.75
21358;PMS7003;13506;50.852;20.632;2022-10-20T05:40:42;36.20;30.60;16.80
21358;PMS7003;13506;50.852;20.632;2022-10-20T05:43:09;31.80;27.00;14.40
21358;PMS7003;13506;50.852;20.632;2022-10-20T05:45:37;27.00;24.00;14.00
21358;PMS7003;13506;50.852;20.632;2022-10-20T05:48:05;31.00;26.20;13.60
21358;PMS7003;13506;50.852;20.632;2022-10-20T05:50:33;28.00;25.00;15.80
21358;PMS7003;13506;50.852;20.632;2022-10-20T05:53:01;28.80;22.00;9.60
21358;PMS7003;13506;50.852;20.632;2022-10-20T05:55:28;31.20;26.20;14.60
21358;PMS7003;13506;50.852;20.632;2022-10-20T05:57:58;27.40;25.20;14.80
21358;PMS7003;13506;50.852;20.632;2022-10-20T06:00:25;30.20;28.40;17.60
21358;PMS7003;13506;50.852;20.632;2022-10-20T06:02:56;29.80;27.80;15.80
21358;PMS7003;13506;50.852;20.632;2022-10-20T06:05:23;28.00;23.40;14.20
21358;PMS7003;13506;50.852;20.632;2022-10-20T06:07:52;26.00;23.20;14.00
21358;PMS7003;13506;50.852;20.632;2022-10-20T06:10:19;36.20;30.20;16.20
21358;PMS7003;13506;50.852;20.632;2022-10-20T06:12:49;37.20;31.40;17.40
21358;PMS7003;13506;50.852;20.632;2022-10-20T06:15:18;38.40;35.80;20.80
21358;PMS7003;13506;50.852;20.632;2022-10-20T06:17:45;32.40;29.60;17.00
21358;PMS7003;13506;50.852;20.632;2022-10-20T06:20:13;28.20;25.60;15.80
21358;PMS7003;13506;50.852;20.632;2022-10-20T06:22:41;34.80;30.80;18.40
21358;PMS7003;13506;50.852;20.632;2022-10-20T06:25:09;28.80;25.20;14.80
21358;PMS7003;13506;50.852;20.632;2022-10-20T06:27:36;41.60;29.60;17.60
21358;PMS7003;13506;50.852;20.632;2022-10-20T06:30:07;35.60;27.20;14.80
21358;PMS7003;13506;50.852;20.632;2022-10-20T06:32:37;32.40;27.00;15.20
21358;PMS7003;13506;50.852;20.632;2022-10-20T06:35:04;39.00;32.40;19.20
21358;PMS7003;13506;50.852;20.632;2022-10-20T06:37:33;38.20;33.00;19.00
21358;PMS7003;13506;50.852;20.632;2022-10-20T06:40:00;37.80;26.20;15.00
21358;PMS7003;13506;50.852;20.632;2022-10-20T06:42:28;40.20;36.40;19.40
21358;PMS7003;13506;50.852;20.632;2022-10-20T06:44:55;39.00;34.60;20.00
21358;PMS7003;13506;50.852;20.632;2022-10-20T06:47:24;37.60;30.80;17.80
21358;PMS7003;13506;50.852;20.632;2022-10-20T06:49:53;37.00;29.40;16.20
21358;PMS7003;13506;50.852;20.632;2022-10-20T06:52:21;35.80;30.40;19.20
21358;PMS7003;13506;50.852;20.632;2022-10-20T06:54:48;39.60;34.00;19.20
21358;PMS7003;13506;50.852;20.632;2022-10-20T06:57:16;43.20;38.40;21.60
21358;PMS7003;13506;50.852;20.632;2022-10-20T06:59:44;39.00;33.20;19.40
21358;PMS7003;13506;50.852;20.632;2022-10-20T07:02:13;42.40;31.40;21.40
21358;PMS7003;13506;50.852;20.632;2022-10-20T07:04:41;40.80;36.40;22.60
21358;PMS7003;13506;50.852;20.632;2022-10-20T07:07:11;39.40;33.00;19.20
21358;PMS7003;13506;50.852;20.632;2022-10-20T07:09:38;43.00;32.20;21.00
21358;PMS7003;13506;50.852;20.632;2022-10-20T07:12:06;35.00;29.00;16.60
21358;PMS7003;13506;50.852;20.632;2022-10-20T07:14:33;37.40;33.40;20.20
21358;PMS7003;13506;50.852;20.632;2022-10-20T07:17:02;34.00;31.00;20.50
21358;PMS7003;13506;50.852;20.632;2022-10-20T07:19:30;36.50;32.75;20.75
21358;PMS7003;13506;50.852;20.632;2022-10-20T07:21:58;34.75;31.00;18.75
21358;PMS7003;13506;50.852;20.632;2022-10-20T07:24:27;36.25;29.00;18.00
21358;PMS7003;13506;50.852;20.632;2022-10-20T07:26:55;33.50;29.50;19.25
21358;PMS7003;13506;50.852;20.632;2022-10-20T07:29:23;34.00;31.00;19.50
21358;PMS7003;13506;50.852;20.632;2022-10-20T07:31:50;35.25;30.25;19.25
21358;PMS7003;13506;50.852;20.632;2022-10-20T07:34:18;37.75;31.00;20.00
21358;PMS7003;13506;50.852;20.632;2022-10-20T07:36:47;34.25;29.50;19.25
21358;PMS7003;13506;50.852;20.632;2022-10-20T07:39:15;21.00;19.50;13.25
21358;PMS7003;13506;50.852;20.632;2022-10-20T07:41:44;15.50;14.25;7.00
21358;PMS7003;13506;50.852;20.632;2022-10-20T07:44:12;13.75;13.75;7.75
21358;PMS7003;13506;50.852;20.632;2022-10-20T07:46:40;15.25;12.50;6.25
21358;PMS7003;13506;50.852;20.632;2022-10-20T07:49:07;17.75;14.25;8.00
21358;PMS7003;13506;50.852;20.632;2022-10-20T07:51:35;12.40;10.60;6.60
21358;PMS7003;13506;50.852;20.632;2022-10-20T07:54:03;14.50;14.50;10.00
21358;PMS7003;13506;50.852;20.632;2022-10-20T07:56:34;14.50;13.00;7.25
21358;PMS7003;13506;50.852;20.632;2022-10-20T07:59:06;10.40;9.60;5.60
21358;PMS7003;13506;50.852;20.632;2022-10-20T08:01:35;13.20;11.60;6.40
21358;PMS7003;13506;50.852;20.632;2022-10-20T08:04:03;10.00;10.00;6.00
21358;PMS7003;13506;50.852;20.632;2022-10-20T08:06:31;12.00;11.60;7.00
21358;PMS7003;13506;50.852;20.632;2022-10-20T08:08:59;15.00;13.00;6.40
21358;PMS7003;13506;50.852;20.632;2022-10-20T08:11:27;14.40;13.60;8.00
21358;PMS7003;13506;50.852;20.632;2022-10-20T08:13:55;12.60;11.20;5.40
21358;PMS7003;13506;50.852;20.632;2022-10-20T08:16:24;15.00;13.40;7.40
21358;PMS7003;13506;50.852;20.632;2022-10-20T08:18:52;14.00;12.00;6.40
21358;PMS7003;13506;50.852;20.632;2022-10-20T08:21:19;15.00;12.80;7.40
21358;PMS7003;13506;50.852;20.632;2022-10-20T08:23:48;15.00;13.40;8.00
21358;PMS7003;13506;50.852;20.632;2022-10-20T08:26:17;9.80;9.40;5.80
21358;PMS7003;13506;50.852;20.632;2022-10-20T08:28:47;10.40;9.00;4.60
21358;PMS7003;13506;50.852;20.632;2022-10-20T08:31:16;10.20;9.60;5.00
21358;PMS7003;13506;50.852;20.632;2022-10-20T08:33:45;9.00;7.20;3.00
21358;PMS7003;13506;50.852;20.632;2022-10-20T08:36:13;8.20;8.00;4.80
21358;PMS7003;13506;50.852;20.632;2022-10-20T08:38:41;11.60;10.40;5.80
21358;PMS7003;13506;50.852;20.632;2022-10-20T08:41:13;8.60;7.80;4.20
21358;PMS7003;13506;50.852;20.632;2022-10-20T08:43:44;11.40;9.40;5.00
21358;PMS7003;13506;50.852;20.632;2022-10-20T08:46:15;10.00;9.00;5.00
21358;PMS7003;13506;50.852;20.632;2022-10-20T08:48:46;8.20;8.20;5.40
21358;PMS7003;13506;50.852;20.632;2022-10-20T08:51:15;7.40;6.80;3.20
21358;PMS7003;13506;50.852;20.632;2022-10-20T08:53:45;9.00;7.40;3.80
21358;PMS7003;13506;50.852;20.632;2022-10-20T08:56:14;11.00;8.80;4.80
21358;PMS7003;13506;50.852;20.632;2022-10-20T08:58:45;11.40;10.40;6.60
21358;PMS7003;13506;50.852;20.632;2022-10-20T09:01:15;11.80;8.60;4.80
21358;PMS7003;13506;50.852;20.632;2022-10-20T09:03:48;13.00;11.40;5.80
21358;PMS7003;13506;50.852;20.632;2022-10-20T09:06:20;7.80;6.40;3.00
21358;PMS7003;13506;50.852;20.632;2022-10-20T09:08:48;8.20;6.80;2.80
21358;PMS7003;13506;50.852;20.632;2022-10-20T09:11:17;7.60;5.00;2.00
21358;PMS7003;13506;50.852;20.632;2022-10-20T09:13:49;4.80;4.80;2.00
21358;PMS7003;13506;50.852;20.632;2022-10-20T09:16:19;6.80;6.60;2.80
21358;PMS7003;13506;50.852;20.632;2022-10-20T09:18:53;6.40;6.00;3.00
21358;PMS7003;13506;50.852;20.632;2022-10-20T09:21:23;6.60;6.60;3.60
21358;PMS7003;13506;50.852;20.632;2022-10-20T09:23:53;6.40;4.00;1.80
21358;PMS7003;13506;50.852;20.632;2022-10-20T09:26:29;4.20;4.00;1.20
21358;PMS7003;13506;50.852;20.632;2022-10-20T09:29:02;7.60;5.20;2.00
21358;PMS7003;13506;50.852;20.632;2022-10-20T09:31:36;5.00;4.60;2.00
21358;PMS7003;13506;50.852;20.632;2022-10-20T09:34:19;5.40;4.60;2.00
21358;PMS7003;13506;50.852;20.632;2022-10-20T09:36:49;4.80;4.40;2.00
21358;PMS7003;13506;50.852;20.632;2022-10-20T09:39:21;4.00;4.00;1.00
21358;PMS7003;13506;50.852;20.632;2022-10-20T09:41:57;3.75;3.00;0.00
21358;PMS7003;13506;50.852;20.632;2022-10-20T09:44:29;2.00;2.00;0.00
21358;PMS7003;13506;50.852;20.632;2022-10-20T09:47:01;2.00;2.00;0.00
21358;PMS7003;13506;50.852;20.632;2022-10-20T09:49:31;3.00;3.00;0.50
21358;PMS7003;13506;50.852;20.632;2022-10-20T09:52:02;2.50;2.25;0.75
21358;PMS7003;13506;50.852;20.632;2022-10-20T09:54:45;2.20;2.20;0.80
21358;PMS7003;13506;50.852;20.632;2022-10-20T09:57:15;2.40;2.00;0.00
21358;PMS7003;13506;50.852;20.632;2022-10-20T09:59:45;2.00;2.00;0.00
21358;PMS7003;13506;50.852;20.632;2022-10-20T10:02:27;2.60;2.60;1.00
21358;PMS7003;13506;50.852;20.632;2022-10-20T10:07:58;3.00;1.60;0.00
21358;PMS7003;13506;50.852;20.632;2022-10-20T10:10:27;2.00;2.00;0.00
21358;PMS7003;13506;50.852;20.632;2022-10-20T10:12:57;2.00;2.00;0.00
21358;PMS7003;13506;50.852;20.632;2022-10-20T10:15:29;3.80;3.80;1.00
21358;PMS7003;13506;50.852;20.632;2022-10-20T10:17:59;3.75;3.75;1.50
21358;PMS7003;13506;50.852;20.632;2022-10-20T10:20:37;3.20;3.20;1.00
21358;PMS7003;13506;50.852;20.632;2022-10-20T10:23:13;2.50;2.00;0.25
21358;PMS7003;13506;50.852;20.632;2022-10-20T10:25:47;3.25;3.00;0.25
21358;PMS7003;13506;50.852;20.632;2022-10-20T10:28:19;3.00;3.00;1.00
21358;PMS7003;13506;50.852;20.632;2022-10-20T10:31:09;3.25;2.00;0.00
21358;PMS7003;13506;50.852;20.632;2022-10-20T10:33:49;8.00;7.20;3.00
21358;PMS7003;13506;50.852;20.632;2022-10-20T10:36:24;13.00;10.00;4.80
21358;PMS7003;13506;50.852;20.632;2022-10-20T10:38:59;4.80;4.80;1.20
21358;PMS7003;13506;50.852;20.632;2022-10-20T10:41:37;2.25;2.25;0.00
21358;PMS7003;13506;50.852;20.632;2022-10-20T10:44:20;2.50;2.50;1.00
21358;PMS7003;13506;50.852;20.632;2022-10-20T10:47:01;2.25;2.00;0.00
21358;PMS7003;13506;50.852;20.632;2022-10-20T10:49:52;2.25;2.25;0.00
21358;PMS7003;13506;50.852;20.632;2022-10-20T10:52:33;3.00;3.00;0.75
21358;PMS7003;13506;50.852;20.632;2022-10-20T10:55:15;3.00;2.40;0.80
21358;PMS7003;13506;50.852;20.632;2022-10-20T10:57:59;2.00;2.00;0.00
21358;PMS7003;13506;50.852;20.632;2022-10-20T11:00:43;2.00;2.00;0.00
21358;PMS7003;13506;50.852;20.632;2022-10-20T11:06:29;4.00;3.25;1.00
21358;PMS7003;13506;50.852;20.632;2022-10-20T11:09:12;3.00;3.00;1.00
21358;PMS7003;13506;50.852;20.632;2022-10-20T11:11:59;3.00;3.00;1.00
21358;PMS7003;13506;50.852;20.632;2022-10-20T11:14:53;3.50;2.75;1.00
21358;PMS7003;13506;50.852;20.632;2022-10-20T11:17:42;3.00;3.00;0.75
21358;PMS7003;13506;50.852;20.632;2022-10-20T11:20:23;2.25;2.25;0.50
21358;PMS7003;13506;50.852;20.632;2022-10-20T11:23:15;1.80;1.80;0.00
21358;PMS7003;13506;50.852;20.632;2022-10-20T11:26:09;2.25;2.25;0.75
21358;PMS7003;13506;50.852;20.632;2022-10-20T11:28:48;2.00;2.00;0.00
21358;PMS7003;13506;50.852;20.632;2022-10-20T11:31:21;2.00;2.00;0.00
21358;PMS7003;13506;50.852;20.632;2022-10-20T11:33:56;1.25;1.25;0.00
21358;PMS7003;13506;50.852;20.632;2022-10-20T11:36:32;3.00;2.00;0.00
21358;PMS7003;13506;50.852;20.632;2022-10-20T11:39:08;1.75;1.75;0.00
21358;PMS7003;13506;50.852;20.632;2022-10-20T11:41:44;2.00;2.00;0.00
21358;PMS7003;13506;50.852;20.632;2022-10-20T11:44:18;3.00;3.00;0.00
21358;PMS7003;13506;50.852;20.632;2022-10-20T11:46:55;1.00;1.00;0.00
21358;PMS7003;13506;50.852;20.632;2022-10-20T11:49:27;2.40;2.40;1.00
21358;PMS7003;13506;50.852;20.632;2022-10-20T11:52:06;1.25;1.25;0.00
21358;PMS7003;13506;50.852;20.632;2022-10-20T11:55:10;2.00;2.00;0.25
21358;PMS7003;13506;50.852;20.632;2022-10-20T11:58:09;1.25;1.25;0.00
21358;PMS7003;13506;50.852;20.632;2022-10-20T12:01:01;2.25;2.00;0.00
21358;PMS7003;13506;50.852;20.632;2022-10-20T12:07:24;2.00;2.00;0.00
21358;PMS7003;13506;50.852;20.632;2022-10-20T12:13:21;2.00;2.00;0.00
21358;PMS7003;13506;50.852;20.632;2022-10-20T12:16:02;2.75;2.00;0.00
21358;PMS7003;13506;50.852;20.632;2022-10-20T12:18:31;2.00;2.00;0.00
21358;PMS7003;13506;50.852;20.632;2022-10-20T12:21:01;1.75;1.75;0.00
21358;PMS7003;13506;50.852;20.632;2022-10-20T12:26:34;3.60;2.20;0.00
21358;PMS7003;13506;50.852;20.632;2022-10-20T12:29:47;1.00;1.00;0.00
21358;PMS7003;13506;50.852;20.632;2022-10-20T12:32:36;2.25;1.75;0.25
21358;PMS7003;13506;50.852;20.632;2022-10-20T12:38:25;2.00;2.00;0.25
21358;PMS7003;13506;50.852;20.632;2022-10-20T12:40:55;1.75;1.75;0.00
21358;PMS7003;13506;50.852;20.632;2022-10-20T12:43:43;2.00;2.00;0.25
21358;PMS7003;13506;50.852;20.632;2022-10-20T12:46:17;2.00;2.00;0.00
21358;PMS7003;13506;50.852;20.632;2022-10-20T12:48:51;3.25;2.50;0.75
21358;PMS7003;13506;50.852;20.632;2022-10-20T12:51:35;2.00;2.00;1.00
21358;PMS7003;13506;50.852;20.632;2022-10-20T12:54:13;3.00;3.00;0.00
21358;PMS7003;13506;50.852;20.632;2022-10-20T12:56:49;4.00;2.25;0.00
21358;PMS7003;13506;50.852;20.632;2022-10-20T12:59:22;2.00;2.00;0.00
21358;PMS7003;13506;50.852;20.632;2022-10-20T13:05:26;2.00;2.00;0.00
21358;PMS7003;13506;50.852;20.632;2022-10-20T13:17:35;1.25;1.25;0.00
21358;PMS7003;13506;50.852;20.632;2022-10-20T13:20:18;1.00;1.00;0.00
21358;PMS7003;13506;50.852;20.632;2022-10-20T13:22:55;2.00;2.00;0.25
21358;PMS7003;13506;50.852;20.632;2022-10-20T13:25:31;2.00;2.00;0.00
21358;PMS7003;13506;50.852;20.632;2022-10-20T13:28:13;1.50;1.50;0.00
21358;PMS7003;13506;50.852;20.632;2022-10-20T13:30:53;2.00;2.00;0.00
21358;PMS7003;13506;50.852;20.632;2022-10-20T13:33:47;1.00;1.00;0.00
21358;PMS7003;13506;50.852;20.632;2022-10-20T13:36:31;2.00;2.00;0.00
21358;PMS7003;13506;50.852;20.632;2022-10-20T13:39:24;2.75;2.00;0.00
21358;PMS7003;13506;50.852;20.632;2022-10-20T13:42:09;10.60;8.80;4.00
21358;PMS7003;13506;50.852;20.632;2022-10-20T13:44:53;3.00;3.00;1.25
21358;PMS7003;13506;50.852;20.632;2022-10-20T13:47:34;3.00;2.50;0.00
21358;PMS7003;13506;50.852;20.632;2022-10-20T13:50:16;3.00;2.00;0.00
21358;PMS7003;13506;50.852;20.632;2022-10-20T13:52:50;2.00;2.00;0.00
21358;PMS7003;13506;50.852;20.632;2022-10-20T13:55:22;4.00;3.25;1.00
21358;PMS7003;13506;50.852;20.632;2022-10-20T13:57:54;2.50;2.50;0.00
21358;PMS7003;13506;50.852;20.632;2022-10-20T14:00:24;2.50;2.00;0.00
21358;PMS7003;13506;50.852;20.632;2022-10-20T14:02:56;2.00;2.00;0.75
21358;PMS7003;13506;50.852;20.632;2022-10-20T14:05:26;2.25;1.25;0.25
21358;PMS7003;13506;50.852;20.632;2022-10-20T14:07:59;2.00;2.00;0.25
21358;PMS7003;13506;50.852;20.632;2022-10-20T14:10:28;2.75;2.75;0.00
21358;PMS7003;13506;50.852;20.632;2022-10-20T14:13:05;4.25;2.00;0.00
21358;PMS7003;13506;50.852;20.632;2022-10-20T14:15:35;3.00;3.00;0.25
21358;PMS7003;13506;50.852;20.632;2022-10-20T14:18:04;4.25;4.25;1.25
21358;PMS7003;13506;50.852;20.632;2022-10-20T14:20:52;4.75;4.75;2.00
21358;PMS7003;13506;50.852;20.632;2022-10-20T14:23:23;3.00;3.00;0.00
21358;PMS7003;13506;50.852;20.632;2022-10-20T14:25:53;3.75;3.50;1.00
21358;PMS7003;13506;50.852;20.632;2022-10-20T14:28:30;3.00;3.00;0.75
21358;PMS7003;13506;50.852;20.632;2022-10-20T14:31:01;3.20;3.20;1.00
21358;PMS7003;13506;50.852;20.632;2022-10-20T14:33:30;4.00;4.00;1.00
21358;PMS7003;13506;50.852;20.632;2022-10-20T14:36:02;2.00;2.00;0.00
21358;PMS7003;13506;50.852;20.632;2022-10-20T14:38:45;4.80;4.00;1.60
21358;PMS7003;13506;50.852;20.632;2022-10-20T14:41:22;3.00;3.00;1.00
21358;PMS7003;13506;50.852;20.632;2022-10-20T14:43:52;2.75;2.75;0.00
21358;PMS7003;13506;50.852;20.632;2022-10-20T14:46:25;4.00;3.00;1.00
21358;PMS7003;13506;50.852;20.632;2022-10-20T14:48:59;4.80;3.40;1.00
21358;PMS7003;13506;50.852;20.632;2022-10-20T14:51:33;2.00;2.00;0.25
21358;PMS7003;13506;50.852;20.632;2022-10-20T14:54:21;3.00;3.00;1.00
21358;PMS7003;13506;50.852;20.632;2022-10-20T14:57:00;2.00;2.00;0.00